createdAt,value
2018-05-18T00:00:14.163Z,1015.22
2018-05-18T00:01:14.137Z,1015.16
2018-05-18T00:02:14.112Z,1015.17
2018-05-18T00:03:14.091Z,1015.26
2018-05-18T00:04:14.060Z,1015.19
2018-05-18T00:05:14.038Z,1015.19
2018-05-18T00:06:14.012Z,1015.06
2018-05-18T00:07:13.988Z,1015.15
2018-05-18T00:08:13.958Z,1015.14
2018-05-18T00:09:13.936Z,1015.20
2018-05-18T00:10:13.910Z,1015.28
2018-05-18T00:11:13.880Z,1015.21
2018-05-18T00:12:13.906Z,1015.19
2018-05-18T00:13:13.831Z,1015.20
2018-05-18T00:14:13.804Z,1015.18
2018-05-18T00:15:13.779Z,1015.21
2018-05-18T00:16:13.752Z,1015.22
2018-05-18T00:17:13.727Z,1015.20
2018-05-18T00:18:13.701Z,1015.15
2018-05-18T00:19:13.675Z,1015.13
2018-05-18T00:20:13.649Z,1015.20
2018-05-18T00:21:13.627Z,1015.09
2018-05-18T00:22:13.598Z,1015.15
2018-05-18T00:23:13.572Z,1015.26
2018-05-18T00:24:13.549Z,1015.29
2018-05-18T00:25:13.521Z,1015.13
2018-05-18T00:26:13.495Z,1015.08
2018-05-18T00:27:13.470Z,1015.09
2018-05-18T00:28:13.444Z,1014.96
2018-05-18T00:29:13.418Z,1015.18
2018-05-18T00:30:13.392Z,1015.11
2018-05-18T00:31:13.367Z,1015.12
2018-05-18T00:32:13.340Z,1015.20
2018-05-18T00:33:13.322Z,1015.17
2018-05-18T00:34:13.289Z,1015.20
2018-05-18T00:35:13.264Z,1015.16
2018-05-18T00:36:13.237Z,1015.28
2018-05-18T00:37:13.214Z,1015.22
2018-05-18T00:38:13.187Z,1015.25
2018-05-18T00:39:13.159Z,1015.23
2018-05-18T00:40:13.135Z,1015.24
2018-05-18T00:41:13.108Z,1015.09
2018-05-18T00:42:13.084Z,1015.24
2018-05-18T00:43:13.057Z,1015.20
2018-05-18T00:44:13.031Z,1015.17
2018-05-18T00:45:13.006Z,1015.21
2018-05-18T00:46:12.980Z,1015.24
2018-05-18T00:47:12.953Z,1015.25
2018-05-18T00:48:12.928Z,1015.25
2018-05-18T00:49:12.904Z,1015.20
2018-05-18T00:50:12.877Z,1015.23
2018-05-18T00:51:12.854Z,1015.22
2018-05-18T00:52:12.832Z,1015.29
2018-05-18T00:53:12.799Z,1015.26
2018-05-18T00:54:12.778Z,1015.15
2018-05-18T00:55:12.748Z,1015.18
2018-05-18T00:56:12.722Z,1015.27
2018-05-18T00:57:12.699Z,1015.29
2018-05-18T00:58:12.678Z,1015.32
2018-05-18T00:59:12.650Z,1015.25
2018-05-18T01:00:12.619Z,1015.38
2018-05-18T01:01:12.595Z,1015.28
2018-05-18T01:02:12.569Z,1015.24
2018-05-18T01:03:12.542Z,1015.34
2018-05-18T01:04:12.517Z,1015.30
2018-05-18T01:05:12.491Z,1015.27
2018-05-18T01:06:12.469Z,1015.31
2018-05-18T01:07:12.445Z,1015.27
2018-05-18T01:08:12.413Z,1015.28
2018-05-18T01:09:12.390Z,1015.23
2018-05-18T01:10:12.363Z,1015.31
2018-05-18T01:11:12.336Z,1015.26
2018-05-18T01:12:12.311Z,1015.33
2018-05-18T01:13:12.290Z,1015.33
2018-05-18T01:14:12.269Z,1015.26
2018-05-18T01:15:12.234Z,1015.31
2018-05-18T01:16:12.208Z,1015.37
2018-05-18T01:17:12.186Z,1015.34
2018-05-18T01:18:12.161Z,1015.34
2018-05-18T01:19:12.136Z,1015.37
2018-05-18T01:20:12.105Z,1015.35
2018-05-18T01:21:12.079Z,1015.23
2018-05-18T01:22:12.054Z,1015.31
2018-05-18T01:23:12.056Z,1015.29
2018-05-18T01:24:12.001Z,1015.31
2018-05-18T01:25:11.976Z,1015.30
2018-05-18T01:26:11.956Z,1015.30
2018-05-18T01:27:11.927Z,1015.27
2018-05-18T01:28:11.899Z,1015.35
2018-05-18T01:29:11.873Z,1015.32
2018-05-18T01:30:11.858Z,1015.31
2018-05-18T01:31:11.821Z,1015.31
2018-05-18T01:32:11.795Z,1015.37
2018-05-18T01:33:11.770Z,1015.36
2018-05-18T01:34:11.744Z,1015.34
2018-05-18T01:35:11.718Z,1015.39
2018-05-18T01:36:11.696Z,1015.36
2018-05-18T01:37:11.667Z,1015.37
2018-05-18T01:38:11.643Z,1015.43
2018-05-18T01:39:11.615Z,1015.43
2018-05-18T01:40:11.595Z,1015.38
2018-05-18T01:41:11.564Z,1015.41
2018-05-18T01:42:11.542Z,1015.43
2018-05-18T01:43:11.514Z,1015.38
2018-05-18T01:44:11.487Z,1015.36
2018-05-18T01:45:11.461Z,1015.39
2018-05-18T01:46:11.436Z,1015.37
2018-05-18T01:47:11.409Z,1015.36
2018-05-18T01:48:11.383Z,1015.36
2018-05-18T01:49:11.359Z,1015.32
2018-05-18T01:50:11.336Z,1015.39
2018-05-18T01:51:11.306Z,1015.18
2018-05-18T01:52:11.331Z,1015.34
2018-05-18T01:53:11.254Z,1015.38
2018-05-18T01:54:11.229Z,1015.39
2018-05-18T01:55:11.203Z,1015.09
2018-05-18T01:56:11.177Z,1015.26
2018-05-18T01:57:11.152Z,1015.35
2018-05-18T01:58:11.126Z,1015.33
2018-05-18T01:59:11.099Z,1015.30
2018-05-18T02:00:11.076Z,1015.31
2018-05-18T02:01:11.049Z,1015.27
2018-05-18T02:02:11.028Z,1015.30
2018-05-18T02:03:10.998Z,1015.32
2018-05-18T02:04:10.971Z,1015.28
2018-05-18T02:05:10.945Z,1015.32
2018-05-18T02:06:10.920Z,1015.32
2018-05-18T02:07:10.897Z,1015.28
2018-05-18T02:08:10.869Z,1015.34
2018-05-18T02:09:10.842Z,1015.41
2018-05-18T02:10:10.817Z,1015.34
2018-05-18T02:11:10.790Z,1015.31
2018-05-18T02:12:10.768Z,1015.33
2018-05-18T02:13:10.739Z,1015.27
2018-05-18T02:14:10.716Z,1015.36
2018-05-18T02:15:10.687Z,1015.39
2018-05-18T02:16:10.661Z,1015.30
2018-05-18T02:17:10.636Z,1015.29
2018-05-18T02:18:10.610Z,1015.30
2018-05-18T02:19:10.585Z,1015.33
2018-05-18T02:20:10.561Z,1015.29
2018-05-18T02:21:10.532Z,1015.29
2018-05-18T02:22:10.507Z,1015.32
2018-05-18T02:23:10.480Z,1015.33
2018-05-18T02:24:10.455Z,1015.26
2018-05-18T02:25:10.429Z,1015.30
2018-05-18T02:26:10.407Z,1015.33
2018-05-18T02:27:10.378Z,1015.35
2018-05-18T02:28:10.352Z,1015.27
2018-05-18T02:29:10.326Z,1015.33
2018-05-18T02:30:10.301Z,1015.34
2018-05-18T02:31:10.278Z,1015.32
2018-05-18T02:32:10.249Z,1015.38
2018-05-18T02:33:10.223Z,1015.37
2018-05-18T02:34:10.198Z,1015.39
2018-05-18T02:35:10.180Z,1015.36
2018-05-18T02:36:10.147Z,1015.35
2018-05-18T02:37:10.120Z,1015.28
2018-05-18T02:38:10.095Z,1015.36
2018-05-18T02:39:10.074Z,1015.31
2018-05-18T02:40:10.042Z,1015.38
2018-05-18T02:41:10.021Z,1015.34
2018-05-18T02:42:09.992Z,1015.29
2018-05-18T02:43:09.966Z,1015.35
2018-05-18T02:44:09.941Z,1015.39
2018-05-18T02:45:09.913Z,1015.26
2018-05-18T02:46:09.888Z,1015.30
2018-05-18T02:47:09.863Z,1015.30
2018-05-18T02:48:09.838Z,1015.31
2018-05-18T02:49:09.812Z,1015.33
2018-05-18T02:50:09.784Z,1015.30
2018-05-18T02:51:09.762Z,1015.31
2018-05-18T02:52:09.742Z,1015.40
2018-05-18T02:53:09.707Z,1015.26
2018-05-18T02:54:09.684Z,1015.34
2018-05-18T02:55:09.654Z,1015.31
2018-05-18T02:56:09.631Z,1015.35
2018-05-18T02:57:09.604Z,1015.38
2018-05-18T02:58:09.578Z,1015.42
2018-05-18T02:59:09.554Z,1015.36
2018-05-18T03:00:09.526Z,1015.38
2018-05-18T03:01:09.510Z,1015.38
2018-05-18T03:02:09.475Z,1015.46
2018-05-18T03:03:09.450Z,1015.39
2018-05-18T03:04:09.423Z,1015.46
2018-05-18T03:05:09.398Z,1015.48
2018-05-18T03:06:09.377Z,1015.43
2018-05-18T03:07:09.345Z,1015.43
2018-05-18T03:08:09.319Z,1015.47
2018-05-18T03:09:09.294Z,1015.39
2018-05-18T03:10:09.269Z,1015.42
2018-05-18T03:11:09.242Z,1015.39
2018-05-18T03:12:09.216Z,1015.30
2018-05-18T03:13:09.192Z,1015.40
2018-05-18T03:14:09.166Z,1015.39
2018-05-18T03:15:09.168Z,1015.36
2018-05-18T03:16:09.118Z,1015.33
2018-05-18T03:17:09.089Z,1015.38
2018-05-18T03:18:09.065Z,1015.38
2018-05-18T03:19:09.035Z,1015.41
2018-05-18T03:20:09.010Z,1015.44
2018-05-18T03:21:08.989Z,1015.44
2018-05-18T03:22:08.959Z,1015.46
2018-05-18T03:23:08.935Z,1015.47
2018-05-18T03:24:08.911Z,1015.50
2018-05-18T03:25:08.882Z,1015.45
2018-05-18T03:26:08.856Z,1015.48
2018-05-18T03:27:08.830Z,1015.47
2018-05-18T03:28:08.803Z,1015.46
2018-05-18T03:29:08.777Z,1015.43
2018-05-18T03:30:09.354Z,1015.52
2018-05-18T03:31:08.735Z,1015.50
2018-05-18T03:32:08.700Z,1015.53
2018-05-18T03:33:08.676Z,1015.50
2018-05-18T03:34:08.649Z,1015.55
2018-05-18T03:35:08.623Z,1015.59
2018-05-18T03:36:08.603Z,1015.58
2018-05-18T03:37:08.573Z,1015.60
2018-05-18T03:38:08.550Z,1015.56
2018-05-18T03:39:08.520Z,1015.59
2018-05-18T03:40:08.495Z,1015.61
2018-05-18T03:41:08.469Z,1015.62
2018-05-18T03:42:08.451Z,1015.63
2018-05-18T03:43:08.417Z,1015.63
2018-05-18T03:44:08.391Z,1015.64
2018-05-18T03:45:08.365Z,1015.64
2018-05-18T03:46:08.341Z,1015.61
2018-05-18T03:47:08.314Z,1015.66
2018-05-18T03:48:08.289Z,1015.64
2018-05-18T03:49:08.262Z,1015.70
2018-05-18T03:50:08.240Z,1015.67
2018-05-18T03:51:08.211Z,1015.71
2018-05-18T03:52:08.188Z,1015.67
2018-05-18T03:53:08.160Z,1015.70
2018-05-18T03:54:08.141Z,1015.66
2018-05-18T03:55:08.108Z,1015.69
2018-05-18T03:56:08.082Z,1015.69
2018-05-18T03:57:08.057Z,1015.65
2018-05-18T03:58:08.032Z,1015.69
2018-05-18T03:59:08.005Z,1015.67
2018-05-18T04:00:07.985Z,1015.62
2018-05-18T04:01:07.954Z,1015.66
2018-05-18T04:02:07.929Z,1015.67
2018-05-18T04:03:07.901Z,1015.71
2018-05-18T04:04:07.882Z,1015.72
2018-05-18T04:05:07.850Z,1015.69
2018-05-18T04:06:07.832Z,1015.70
2018-05-18T04:07:07.799Z,1015.71
2018-05-18T04:11:34.423Z,1015.74
2018-05-18T04:12:34.401Z,1015.79
2018-05-18T04:13:34.372Z,1015.82
2018-05-18T04:14:34.349Z,1015.78
2018-05-18T04:15:34.322Z,1015.79
2018-05-18T04:16:34.295Z,1015.79
2018-05-18T04:17:34.270Z,1015.78
2018-05-18T04:18:34.246Z,1015.80
2018-05-18T04:19:34.219Z,1015.79
2018-05-18T04:20:34.193Z,1015.82
2018-05-18T04:21:34.173Z,1015.82
2018-05-18T04:22:34.148Z,1015.82
2018-05-18T04:23:34.123Z,1015.82
2018-05-18T04:24:34.100Z,1015.82
2018-05-18T04:25:34.073Z,1015.81
2018-05-18T04:26:34.045Z,1015.91
2018-05-18T04:27:34.020Z,1015.90
2018-05-18T04:28:33.994Z,1015.86
2018-05-18T04:29:33.977Z,1015.82
2018-05-18T04:30:33.947Z,1015.82
2018-05-18T04:31:33.918Z,1015.83
2018-05-18T04:32:33.891Z,1015.78
2018-05-18T04:33:33.868Z,1015.84
2018-05-18T04:34:33.841Z,1015.78
2018-05-18T04:35:33.815Z,1015.80
2018-05-18T04:36:33.789Z,1015.83
2018-05-18T04:37:33.763Z,1015.79
2018-05-18T04:38:33.738Z,1015.71
2018-05-18T04:39:33.713Z,1015.75
2018-05-18T04:40:33.687Z,1015.79
2018-05-18T04:41:33.662Z,1015.84
2018-05-18T04:42:33.636Z,1015.82
2018-05-18T04:43:33.611Z,1015.85
2018-05-18T04:44:33.593Z,1015.82
2018-05-18T04:45:33.561Z,1015.88
2018-05-18T04:46:33.534Z,1015.85
2018-05-18T04:47:33.508Z,1015.83
2018-05-18T04:48:33.496Z,1015.86
2018-05-18T04:49:33.457Z,1015.91
2018-05-18T04:50:33.433Z,1015.95
2018-05-18T04:51:33.406Z,1015.98
2018-05-18T04:52:33.380Z,1015.98
2018-05-18T04:53:33.355Z,1015.97
2018-05-18T04:54:33.338Z,1016.00
2018-05-18T04:55:33.306Z,1015.98
2018-05-18T04:56:33.283Z,1016.01
2018-05-18T04:57:33.253Z,1016.01
2018-05-18T04:58:33.227Z,1016.02
2018-05-18T04:59:33.203Z,1015.99
2018-05-18T05:00:33.177Z,1015.98
2018-05-18T05:01:33.166Z,1015.99
2018-05-18T05:02:33.127Z,1016.06
2018-05-18T05:03:33.102Z,1016.01
2018-05-18T05:04:33.075Z,1016.02
2018-05-18T05:05:33.119Z,1016.00
2018-05-18T05:06:33.024Z,1015.99
2018-05-18T05:07:33.000Z,1015.99
2018-05-18T05:08:32.973Z,1016.04
2018-05-18T05:09:32.952Z,1016.02
2018-05-18T05:10:32.922Z,1016.06
2018-05-18T05:11:32.900Z,1016.11
2018-05-18T05:12:32.896Z,1016.11
2018-05-18T05:13:32.845Z,1016.07
2018-05-18T05:14:32.826Z,1016.07
2018-05-18T05:15:32.795Z,1016.12
2018-05-18T05:16:32.768Z,1016.16
2018-05-18T05:17:32.744Z,1016.09
2018-05-18T05:18:32.719Z,1016.08
2018-05-18T05:19:32.693Z,1016.11
2018-05-18T05:20:32.667Z,1016.12
2018-05-18T05:21:32.642Z,1016.07
2018-05-18T05:22:32.619Z,1016.11
2018-05-18T05:23:32.592Z,1016.09
2018-05-18T05:24:32.566Z,1016.06
2018-05-18T05:25:32.542Z,1016.10
2018-05-18T05:26:32.516Z,1016.10
2018-05-18T05:27:32.491Z,1016.19
2018-05-18T05:28:32.469Z,1016.18
2018-05-18T05:29:32.440Z,1016.18
2018-05-18T05:30:32.447Z,1016.25
2018-05-18T05:31:32.391Z,1016.20
2018-05-18T05:32:32.441Z,1016.17
2018-05-18T05:33:32.339Z,1016.17
2018-05-18T05:34:32.317Z,1016.26
2018-05-18T05:35:32.292Z,1016.22
2018-05-18T05:36:32.267Z,1016.24
2018-05-18T05:37:32.242Z,1016.25
2018-05-18T05:38:32.214Z,1016.28
2018-05-18T05:39:32.191Z,1016.33
2018-05-18T05:40:32.163Z,1016.35
2018-05-18T05:41:32.139Z,1016.36
2018-05-18T05:42:32.113Z,1016.37
2018-05-18T05:43:32.088Z,1016.40
2018-05-18T05:44:32.062Z,1016.37
2018-05-18T05:45:32.037Z,1016.40
2018-05-18T05:46:32.015Z,1016.35
2018-05-18T05:47:31.991Z,1016.36
2018-05-18T05:48:31.962Z,1016.38
2018-05-18T05:49:31.941Z,1016.38
2018-05-18T05:50:31.912Z,1016.40
2018-05-18T05:51:31.887Z,1016.44
2018-05-18T05:52:31.863Z,1016.40
2018-05-18T05:53:31.836Z,1016.45
2018-05-18T05:54:31.812Z,1016.40
2018-05-18T05:55:31.787Z,1016.36
2018-05-18T05:56:31.767Z,1016.49
2018-05-18T05:57:31.736Z,1016.45
2018-05-18T05:58:31.748Z,1016.44
2018-05-18T05:59:31.689Z,1016.45
2018-05-18T06:00:31.688Z,1016.36
2018-05-18T06:01:31.636Z,1016.49
2018-05-18T06:02:31.612Z,1016.49
2018-05-18T06:03:31.586Z,1016.46
2018-05-18T06:04:31.577Z,1016.53
2018-05-18T06:05:31.536Z,1016.50
2018-05-18T06:06:31.511Z,1016.54
2018-05-18T06:07:31.486Z,1016.58
2018-05-18T06:08:31.460Z,1016.55
2018-05-18T06:09:31.435Z,1016.60
2018-05-18T06:10:31.410Z,1016.59
2018-05-18T06:11:31.388Z,1016.57
2018-05-18T06:12:31.360Z,1016.65
2018-05-18T06:13:31.338Z,1016.72
2018-05-18T06:14:31.314Z,1016.66
2018-05-18T06:15:31.287Z,1016.73
2018-05-18T06:16:31.259Z,1016.72
2018-05-18T06:17:31.234Z,1016.68
2018-05-18T06:18:31.209Z,1016.75
2018-05-18T06:19:31.206Z,1016.74
2018-05-18T06:20:31.164Z,1016.74
2018-05-18T06:21:31.134Z,1016.74
2018-05-18T06:22:31.110Z,1016.70
2018-05-18T06:23:31.085Z,1016.71
2018-05-18T06:24:31.058Z,1016.76
2018-05-18T06:25:31.033Z,1016.73
2018-05-18T06:26:31.008Z,1016.67
2018-05-18T06:27:30.983Z,1016.80
2018-05-18T06:28:30.957Z,1016.79
2018-05-18T06:29:30.956Z,1016.87
2018-05-18T06:30:30.907Z,1016.87
2018-05-18T06:31:30.882Z,1016.84
2018-05-18T06:32:30.856Z,1016.86
2018-05-18T06:33:30.832Z,1016.85
2018-05-18T06:34:30.889Z,1016.86
2018-05-18T06:35:30.783Z,1016.86
2018-05-18T06:36:30.760Z,1016.89
2018-05-18T06:37:30.734Z,1016.91
2018-05-18T06:38:30.713Z,1016.92
2018-05-18T06:39:30.683Z,1016.89
2018-05-18T06:40:30.661Z,1016.90
2018-05-18T06:41:30.633Z,1016.99
2018-05-18T06:42:30.606Z,1016.96
2018-05-18T06:43:30.581Z,1016.82
2018-05-18T06:44:30.558Z,1016.95
2018-05-18T06:45:30.539Z,1017.02
2018-05-18T06:46:30.507Z,1016.93
2018-05-18T06:47:30.480Z,1017.01
2018-05-18T06:48:30.465Z,1017.03
2018-05-18T06:49:30.430Z,1016.97
2018-05-18T06:50:30.406Z,1017.12
2018-05-18T06:51:30.381Z,1017.09
2018-05-18T06:52:30.387Z,1017.09
2018-05-18T06:53:30.331Z,1017.09
2018-05-18T06:54:30.311Z,1017.08
2018-05-18T06:55:30.279Z,1017.15
2018-05-18T06:56:30.261Z,1017.13
2018-05-18T06:57:30.229Z,1017.09
2018-05-18T06:58:30.209Z,1017.07
2018-05-18T06:59:30.179Z,1017.18
2018-05-18T07:00:30.156Z,1017.11
2018-05-18T07:01:30.128Z,1017.14
2018-05-18T07:02:30.136Z,1017.13
2018-05-18T07:03:30.094Z,1017.13
2018-05-18T07:04:30.071Z,1017.07
2018-05-18T07:05:30.032Z,1017.14
2018-05-18T07:06:30.008Z,1017.12
2018-05-18T07:07:29.979Z,1017.07
2018-05-18T07:08:29.954Z,1017.13
2018-05-18T07:09:29.933Z,1017.15
2018-05-18T07:10:29.995Z,1017.10
2018-05-18T07:11:29.879Z,1017.08
2018-05-18T07:12:29.854Z,1017.16
2018-05-18T07:13:29.901Z,1017.11
2018-05-18T07:14:29.805Z,1017.09
2018-05-18T07:15:29.779Z,1017.13
2018-05-18T07:16:29.784Z,1017.14
2018-05-18T07:17:29.729Z,1017.11
2018-05-18T07:18:29.704Z,1017.23
2018-05-18T07:19:29.706Z,1017.09
2018-05-18T07:20:29.654Z,1017.09
2018-05-18T07:21:29.636Z,1017.18
2018-05-18T07:22:29.614Z,1017.14
2018-05-18T07:23:29.583Z,1017.22
2018-05-18T07:24:29.555Z,1017.25
2018-05-18T07:25:29.530Z,1017.23
2018-05-18T07:26:29.507Z,1017.29
2018-05-18T07:27:29.481Z,1017.28
2018-05-18T07:28:29.456Z,1017.27
2018-05-18T07:29:29.439Z,1017.29
2018-05-18T07:30:29.435Z,1017.23
2018-05-18T07:31:29.388Z,1017.25
2018-05-18T07:32:29.357Z,1017.22
2018-05-18T07:33:29.382Z,1017.18
2018-05-18T07:34:29.310Z,1017.22
2018-05-18T07:35:29.283Z,1017.20
2018-05-18T07:36:29.258Z,1017.14
2018-05-18T07:37:29.233Z,1017.26
2018-05-18T07:38:29.209Z,1017.18
2018-05-18T07:39:29.188Z,1017.22
2018-05-18T07:40:29.173Z,1017.29
2018-05-18T07:41:29.134Z,1017.29
2018-05-18T07:42:29.111Z,1017.31
2018-05-18T07:43:29.087Z,1017.34
2018-05-18T07:44:29.068Z,1017.35
2018-05-18T07:45:29.039Z,1017.35
2018-05-18T07:46:29.017Z,1017.31
2018-05-18T07:47:28.990Z,1017.34
2018-05-18T07:48:28.962Z,1017.39
2018-05-18T07:49:28.946Z,1017.38
2018-05-18T07:50:28.920Z,1017.40
2018-05-18T07:51:28.893Z,1017.39
2018-05-18T07:52:28.874Z,1017.41
2018-05-18T07:53:28.850Z,1017.45
2018-05-18T07:54:28.817Z,1017.38
2018-05-18T07:55:28.793Z,1017.44
2018-05-18T07:56:28.768Z,1017.48
2018-05-18T07:57:28.749Z,1017.27
2018-05-18T07:58:28.721Z,1017.42
2018-05-18T07:59:28.742Z,1017.43
2018-05-18T08:00:28.675Z,1017.47
2018-05-18T08:01:28.648Z,1017.45
2018-05-18T08:02:28.621Z,1017.47
2018-05-18T08:03:28.600Z,1017.44
2018-05-18T08:04:28.577Z,1017.48
2018-05-18T08:05:28.565Z,1017.46
2018-05-18T08:06:28.524Z,1017.50
2018-05-18T08:07:28.504Z,1017.49
2018-05-18T08:08:28.475Z,1017.51
2018-05-18T08:09:28.451Z,1017.60
2018-05-18T08:10:28.427Z,1017.52
2018-05-18T08:11:28.403Z,1017.53
2018-05-18T08:12:28.378Z,1017.54
2018-05-18T08:13:28.355Z,1017.53
2018-05-18T08:14:28.330Z,1017.57
2018-05-18T08:15:28.306Z,1017.52
2018-05-18T08:16:28.284Z,1017.58
2018-05-18T08:17:28.257Z,1017.57
2018-05-18T08:18:28.234Z,1017.54
2018-05-18T08:19:28.210Z,1017.53
2018-05-18T08:20:28.186Z,1017.55
2018-05-18T08:21:28.176Z,1017.55
2018-05-18T08:22:28.138Z,1017.60
2018-05-18T08:23:28.120Z,1017.57
2018-05-18T08:24:28.092Z,1017.65
2018-05-18T08:25:28.073Z,1017.60
2018-05-18T08:26:28.045Z,1017.66
2018-05-18T08:27:28.019Z,1017.62
2018-05-18T08:28:27.995Z,1017.66
2018-05-18T08:29:27.973Z,1017.64
2018-05-18T08:30:27.968Z,1017.65
2018-05-18T08:31:27.952Z,1017.69
2018-05-18T08:32:27.932Z,1017.51
2018-05-18T08:33:27.884Z,1017.65
2018-05-18T08:34:27.872Z,1017.64
2018-05-18T08:35:27.830Z,1017.55
2018-05-18T08:36:27.812Z,1017.72
2018-05-18T08:37:27.785Z,1017.77
2018-05-18T08:38:27.812Z,1017.67
2018-05-18T08:39:27.745Z,1017.69
2018-05-18T08:40:27.714Z,1017.72
2018-05-18T08:41:27.695Z,1017.77
2018-05-18T08:42:27.665Z,1017.76
2018-05-18T08:43:27.641Z,1017.80
2018-05-18T08:44:27.722Z,1017.70
2018-05-18T08:45:27.593Z,1017.82
2018-05-18T08:46:27.573Z,1017.70
2018-05-18T08:47:27.546Z,1017.62
2018-05-18T08:48:27.521Z,1017.64
2018-05-18T08:49:27.497Z,1017.66
2018-05-18T08:50:27.510Z,1017.75
2018-05-18T08:51:27.457Z,1017.82
2018-05-18T08:52:27.427Z,1017.85
2018-05-18T08:53:27.403Z,1017.86
2018-05-18T08:54:27.389Z,1017.89
2018-05-18T08:55:27.361Z,1017.83
2018-05-18T08:56:27.336Z,1017.90
2018-05-18T08:57:27.308Z,1017.92
2018-05-18T08:58:27.292Z,1017.86
2018-05-18T08:59:27.268Z,1017.84
2018-05-18T09:00:27.238Z,1017.76
2018-05-18T09:01:27.214Z,1017.89
2018-05-18T09:02:27.197Z,1017.79
2018-05-18T09:03:27.168Z,1017.79
2018-05-18T09:04:27.143Z,1017.90
2018-05-18T09:05:27.128Z,1017.86
2018-05-18T09:06:27.120Z,1017.84
2018-05-18T09:07:27.073Z,1017.92
2018-05-18T09:08:27.057Z,1017.87
2018-05-18T09:09:27.028Z,1017.84
2018-05-18T09:10:27.003Z,1017.91
2018-05-18T09:11:26.980Z,1017.86
2018-05-18T09:12:26.957Z,1017.94
2018-05-18T09:13:26.934Z,1017.91
2018-05-18T09:14:26.916Z,1017.91
2018-05-18T09:15:26.891Z,1017.88
2018-05-18T09:16:26.863Z,1017.91
2018-05-18T09:17:26.840Z,1017.97
2018-05-18T09:18:26.817Z,1017.97
2018-05-18T09:19:26.796Z,1018.01
2018-05-18T09:20:26.771Z,1018.06
2018-05-18T09:21:26.749Z,1018.07
2018-05-18T09:22:26.725Z,1018.03
2018-05-18T09:23:26.702Z,1018.01
2018-05-18T09:24:26.681Z,1018.08
2018-05-18T09:25:26.655Z,1018.07
2018-05-18T09:26:26.666Z,1018.03
2018-05-18T09:27:26.617Z,1018.02
2018-05-18T09:28:26.586Z,1018.02
2018-05-18T09:29:26.563Z,1018.06
2018-05-18T09:30:26.577Z,1018.01
2018-05-18T09:31:26.522Z,1018.06
2018-05-18T09:32:26.494Z,1017.91
2018-05-18T09:33:26.476Z,1018.08
2018-05-18T09:34:26.450Z,1018.01
2018-05-18T09:35:26.426Z,1018.04
2018-05-18T09:36:26.403Z,1018.03
2018-05-18T09:37:26.398Z,1018.16
2018-05-18T09:38:26.368Z,1018.12
2018-05-18T09:39:26.336Z,1018.10
2018-05-18T09:40:26.314Z,1018.24
2018-05-18T09:41:26.286Z,1018.20
2018-05-18T09:42:26.264Z,1018.18
2018-05-18T09:43:26.243Z,1018.22
2018-05-18T09:44:26.221Z,1018.17
2018-05-18T09:45:26.209Z,1018.16
2018-05-18T09:46:26.170Z,1018.16
2018-05-18T09:47:26.151Z,1018.23
2018-05-18T09:48:26.123Z,1018.23
2018-05-18T09:49:26.102Z,1018.20
2018-05-18T09:50:26.086Z,1018.26
2018-05-18T09:51:26.064Z,1018.26
2018-05-18T09:52:26.033Z,1018.31
2018-05-18T09:53:26.013Z,1018.25
2018-05-18T09:54:26.361Z,1018.31
2018-05-18T09:55:26.110Z,1018.26
2018-05-18T09:56:25.938Z,1018.29
2018-05-18T09:57:25.925Z,1018.27
2018-05-18T09:58:25.897Z,1018.23
2018-05-18T09:59:25.871Z,1018.25
2018-05-18T10:00:25.847Z,1018.26
2018-05-18T10:01:25.825Z,1018.24
2018-05-18T10:02:25.802Z,1018.25
2018-05-18T10:03:25.786Z,1018.19
2018-05-18T10:04:25.761Z,1018.30
2018-05-18T10:05:25.735Z,1018.28
2018-05-18T10:06:25.712Z,1018.23
2018-05-18T10:07:25.697Z,1018.27
2018-05-18T10:08:25.668Z,1018.28
2018-05-18T10:09:25.667Z,1018.29
2018-05-18T10:10:25.622Z,1018.27
2018-05-18T10:11:25.599Z,1018.32
2018-05-18T10:12:25.589Z,1018.30
2018-05-18T10:13:25.562Z,1018.27
2018-05-18T10:14:25.552Z,1018.32
2018-05-18T10:15:25.509Z,1018.29
2018-05-18T10:16:25.486Z,1018.21
2018-05-18T10:17:25.464Z,1018.31
2018-05-18T10:18:25.465Z,1018.32
2018-05-18T10:19:25.420Z,1018.22
2018-05-18T10:20:25.396Z,1018.22
2018-05-18T10:21:25.375Z,1018.26
2018-05-18T10:22:25.352Z,1018.31
2018-05-18T10:23:25.329Z,1018.32
2018-05-18T10:24:25.306Z,1018.44
2018-05-18T10:25:25.284Z,1018.27
2018-05-18T10:26:25.262Z,1018.30
2018-05-18T10:27:25.241Z,1018.35
2018-05-18T10:28:25.231Z,1018.37
2018-05-18T10:29:25.195Z,1018.28
2018-05-18T10:30:25.172Z,1018.32
2018-05-18T10:31:25.156Z,1018.30
2018-05-18T10:32:25.129Z,1018.29
2018-05-18T10:33:25.103Z,1018.33
2018-05-18T10:34:25.083Z,1018.34
2018-05-18T10:35:25.063Z,1018.33
2018-05-18T10:36:25.035Z,1018.36
2018-05-18T10:37:25.015Z,1018.30
2018-05-18T10:38:25.002Z,1018.30
2018-05-18T10:39:24.977Z,1018.31
2018-05-18T10:40:24.947Z,1018.35
2018-05-18T10:41:24.921Z,1018.48
2018-05-18T10:42:24.903Z,1018.50
2018-05-18T10:43:24.884Z,1018.41
2018-05-18T10:44:24.866Z,1018.41
2018-05-18T10:45:24.868Z,1018.42
2018-05-18T10:46:24.808Z,1018.45
2018-05-18T10:47:24.785Z,1018.45
2018-05-18T10:48:24.762Z,1018.37
2018-05-18T10:49:24.743Z,1018.39
2018-05-18T10:50:24.726Z,1018.37
2018-05-18T10:51:24.694Z,1018.45
2018-05-18T10:52:24.671Z,1018.44
2018-05-18T10:53:24.649Z,1018.44
2018-05-18T10:54:24.626Z,1018.46
2018-05-18T10:55:24.604Z,1018.42
2018-05-18T10:56:24.589Z,1018.52
2018-05-18T10:57:24.557Z,1018.41
2018-05-18T10:58:24.540Z,1018.46
2018-05-18T10:59:24.523Z,1018.44
2018-05-18T11:00:24.491Z,1018.37
2018-05-18T11:01:24.468Z,1018.45
2018-05-18T11:02:24.444Z,1018.47
2018-05-18T11:03:24.422Z,1018.49
2018-05-18T11:04:24.398Z,1018.49
2018-05-18T11:05:24.391Z,1018.42
2018-05-18T11:06:24.353Z,1018.44
2018-05-18T11:07:24.331Z,1018.44
2018-05-18T11:08:24.310Z,1018.42
2018-05-18T11:09:24.289Z,1018.41
2018-05-18T11:10:24.263Z,1018.37
2018-05-18T11:11:24.244Z,1018.41
2018-05-18T11:12:24.251Z,1018.44
2018-05-18T11:13:24.203Z,1018.44
2018-05-18T11:14:24.174Z,1018.44
2018-05-18T11:15:24.157Z,1018.45
2018-05-18T11:16:24.135Z,1018.47
2018-05-18T11:17:24.105Z,1018.52
2018-05-18T11:18:24.095Z,1018.48
2018-05-18T11:19:24.060Z,1018.52
2018-05-18T11:20:24.036Z,1018.50
2018-05-18T11:21:24.014Z,1018.51
2018-05-18T11:22:23.992Z,1018.54
2018-05-18T11:23:23.985Z,1018.51
2018-05-18T11:24:23.948Z,1018.57
2018-05-18T11:25:23.924Z,1018.59
2018-05-18T11:26:23.951Z,1018.57
2018-05-18T11:27:23.885Z,1018.62
2018-05-18T11:28:23.868Z,1018.56
2018-05-18T11:29:23.842Z,1018.47
2018-05-18T11:30:23.813Z,1018.46
2018-05-18T11:31:23.793Z,1018.60
2018-05-18T11:32:23.770Z,1018.60
2018-05-18T11:33:23.749Z,1018.51
2018-05-18T11:34:23.727Z,1018.55
2018-05-18T11:35:23.701Z,1018.50
2018-05-18T11:36:23.678Z,1018.50
2018-05-18T11:37:23.658Z,1018.44
2018-05-18T11:38:23.661Z,1018.59
2018-05-18T11:39:23.612Z,1018.50
2018-05-18T11:40:23.589Z,1018.56
2018-05-18T11:41:23.566Z,1018.54
2018-05-18T11:42:23.545Z,1018.63
2018-05-18T11:43:23.522Z,1018.56
2018-05-18T11:44:23.501Z,1018.54
2018-05-18T11:45:23.480Z,1018.46
2018-05-18T11:46:23.455Z,1018.55
2018-05-18T11:47:23.436Z,1018.54
2018-05-18T11:48:23.410Z,1018.56
2018-05-18T11:49:23.386Z,1018.59
2018-05-18T11:50:23.372Z,1018.57
2018-05-18T11:51:23.341Z,1018.50
2018-05-18T11:52:23.330Z,1018.52
2018-05-18T11:53:23.295Z,1018.55
2018-05-18T11:54:23.272Z,1018.52
2018-05-18T11:55:23.262Z,1018.57
2018-05-18T11:56:23.247Z,1018.58
2018-05-18T11:57:23.207Z,1018.61
2018-05-18T11:58:23.186Z,1018.53
2018-05-18T11:59:23.159Z,1018.55
2018-05-18T12:00:23.185Z,1018.52
2018-05-18T12:01:23.113Z,1018.59
2018-05-18T12:02:23.117Z,1018.60
2018-05-18T12:03:23.077Z,1018.61
2018-05-18T12:04:23.054Z,1018.61
2018-05-18T12:05:23.022Z,1018.63
2018-05-18T12:06:23.000Z,1018.61
2018-05-18T12:07:22.981Z,1018.63
2018-05-18T12:08:22.960Z,1018.64